createdAt,value
2023-01-17T00:02:20.683Z,97505.72
2023-01-17T00:05:06.066Z,97517.78
2023-01-17T00:07:51.870Z,97521.03
2023-01-17T00:10:23.098Z,97503.94
2023-01-17T00:12:53.007Z,97506.72
2023-01-17T00:15:23.293Z,97524.63
2023-01-17T00:17:51.737Z,97518.72
2023-01-17T00:20:40.002Z,97527.09
2023-01-17T00:23:26.794Z,97533.75
2023-01-17T00:26:05.188Z,97530.59
2023-01-17T00:28:34.207Z,97538.13
2023-01-17T00:31:00.970Z,97538.63
2023-01-17T00:33:28.024Z,97546.59
2023-01-17T00:35:56.054Z,97545.50
2023-01-17T00:38:24.628Z,97545.78
2023-01-17T00:40:51.495Z,97552.31
2023-01-17T00:43:41.267Z,97555.25
2023-01-17T00:46:26.957Z,97559.28
2023-01-17T00:49:12.668Z,97564.53
2023-01-17T00:51:57.972Z,97565.81
2023-01-17T00:54:43.497Z,97563.19
2023-01-17T00:57:28.874Z,97576.19
2023-01-17T01:00:15.347Z,97582.81
2023-01-17T01:03:00.777Z,97580.75
2023-01-17T01:05:46.510Z,97591.84
2023-01-17T01:08:36.764Z,97599.06
2023-01-17T01:11:24.662Z,97593.94
2023-01-17T01:14:10.132Z,97597.97
2023-01-17T01:16:56.745Z,97603.53
2023-01-17T01:19:42.640Z,97612.50
2023-01-17T01:22:28.571Z,97615.81
2023-01-17T01:25:13.729Z,97613.88
2023-01-17T01:27:58.787Z,97627.44
2023-01-17T01:30:44.097Z,97630.09
2023-01-17T01:33:21.013Z,97628.72
2023-01-17T01:35:50.765Z,97633.00
2023-01-17T01:38:19.257Z,97630.91
2023-01-17T01:40:48.940Z,97632.31
2023-01-17T01:43:19.688Z,97635.34
2023-01-17T01:45:52.204Z,97634.97
2023-01-17T01:48:39.257Z,97640.75
2023-01-17T01:51:10.225Z,97642.69
2023-01-17T01:53:42.025Z,97637.59
2023-01-17T01:56:13.701Z,97637.97
2023-01-17T01:58:44.876Z,97643.09
2023-01-17T02:01:13.138Z,97638.66
2023-01-17T02:03:43.612Z,97644.34
2023-01-17T02:06:25.818Z,97646.72
2023-01-17T02:08:53.798Z,97660.81
2023-01-17T02:11:23.181Z,97661.50
2023-01-17T02:13:51.267Z,97655.69
2023-01-17T02:16:32.390Z,97658.59
2023-01-17T02:19:21.703Z,97661.38
2023-01-17T02:22:07.207Z,97662.19
2023-01-17T02:24:56.812Z,97656.94
2023-01-17T02:27:28.471Z,97665.25
2023-01-17T02:30:33.248Z,97671.19
2023-01-17T02:33:14.376Z,97667.19
2023-01-17T02:35:53.790Z,97673.66
2023-01-17T02:38:38.082Z,97674.88
2023-01-17T02:41:08.586Z,97658.16
2023-01-17T02:43:38.325Z,97662.28
2023-01-17T02:46:09.648Z,97655.09
2023-01-17T02:48:38.487Z,97664.63
2023-01-17T02:51:29.861Z,97668.78
2023-01-17T02:54:20.810Z,97647.75
2023-01-17T02:57:00.458Z,97663.09
2023-01-17T02:59:41.721Z,97662.28
2023-01-17T03:02:20.967Z,97669.47
2023-01-17T03:04:53.486Z,97663.94
2023-01-17T03:07:25.418Z,97658.00
2023-01-17T03:09:59.508Z,97659.78
2023-01-17T03:12:29.892Z,97665.06
2023-01-17T03:14:58.189Z,97672.94
2023-01-17T03:17:33.549Z,97677.94
2023-01-17T03:20:01.249Z,97686.66
2023-01-17T03:22:29.025Z,97685.13
2023-01-17T03:24:57.056Z,97681.38
2023-01-17T03:27:24.995Z,97693.16
2023-01-17T03:29:52.979Z,97692.91
2023-01-17T03:32:20.682Z,97686.25
2023-01-17T03:34:49.848Z,97686.38
2023-01-17T03:37:17.607Z,97692.88
2023-01-17T03:39:45.759Z,97691.94
2023-01-17T03:42:13.511Z,97694.69
2023-01-17T03:44:41.447Z,97685.13
2023-01-17T03:47:12.033Z,97672.69
2023-01-17T03:49:40.790Z,97668.56
2023-01-17T03:52:10.111Z,97667.56
2023-01-17T03:54:37.900Z,97675.19
2023-01-17T03:57:06.209Z,97676.00
2023-01-17T03:59:34.233Z,97673.53
2023-01-17T04:02:02.360Z,97676.56
2023-01-17T04:04:30.407Z,97683.34
2023-01-17T04:06:58.124Z,97686.66
2023-01-17T04:09:27.558Z,97692.22
2023-01-17T04:11:55.449Z,97690.53
2023-01-17T04:14:23.316Z,97698.84
2023-01-17T04:16:51.327Z,97683.78
2023-01-17T04:19:19.450Z,97686.78
2023-01-17T04:21:47.761Z,97683.09
2023-01-17T04:24:17.816Z,97673.25
2023-01-17T04:26:47.637Z,97676.84
2023-01-17T04:29:15.539Z,97674.22
2023-01-17T04:31:43.775Z,97683.91
2023-01-17T04:34:12.001Z,97684.72
2023-01-17T04:36:39.968Z,97681.41
2023-01-17T04:39:08.293Z,97685.00
2023-01-17T04:41:37.231Z,97676.56
2023-01-17T04:44:07.035Z,97681.84
2023-01-17T04:46:35.211Z,97693.59
2023-01-17T04:49:03.433Z,97688.47
2023-01-17T04:51:31.362Z,97693.03
2023-01-17T04:53:59.321Z,97697.59
2023-01-17T04:56:27.212Z,97689.16
2023-01-17T04:58:57.528Z,97698.00
2023-01-17T05:01:27.091Z,97699.78
2023-01-17T05:03:55.072Z,97704.22
2023-01-17T05:06:22.817Z,97703.13
2023-01-17T05:08:50.830Z,97716.13
2023-01-17T05:11:18.927Z,97716.97
2023-01-17T05:13:49.261Z,97711.41
2023-01-17T05:16:19.421Z,97707.28
2023-01-17T05:18:52.435Z,97708.09
2023-01-17T05:21:20.321Z,97712.41
2023-01-17T05:23:48.212Z,97709.91
2023-01-17T05:26:15.999Z,97704.91
2023-01-17T05:28:44.024Z,97706.72
2023-01-17T05:31:11.990Z,97717.22
2023-01-17T05:33:40.067Z,97706.97
2023-01-17T05:36:10.374Z,97709.75
2023-01-17T05:38:38.583Z,97706.28
2023-01-17T05:41:07.092Z,97708.09
2023-01-17T05:43:35.156Z,97713.34
2023-01-17T05:46:03.185Z,97717.78
2023-01-17T05:48:31.558Z,97709.06
2023-01-17T05:50:59.847Z,97703.66
2023-01-17T05:53:29.317Z,97701.72
2023-01-17T05:55:57.726Z,97705.91
2023-01-17T05:58:25.893Z,97695.94
2023-01-17T06:00:56.233Z,97698.41
2023-01-17T06:03:24.359Z,97689.28
2023-01-17T06:05:52.262Z,97697.03
2023-01-17T06:08:20.462Z,97702.16
2023-01-17T06:10:50.070Z,97705.63
2023-01-17T06:13:21.861Z,97702.03
2023-01-17T06:15:50.321Z,97707.13
2023-01-17T06:18:19.772Z,97703.53
2023-01-17T06:20:53.162Z,97707.81
2023-01-17T06:23:21.231Z,97701.75
2023-01-17T06:25:51.426Z,97706.03
2023-01-17T06:28:21.849Z,97704.38
2023-01-17T06:30:51.565Z,97703.53
2023-01-17T06:33:20.578Z,97707.00
2023-01-17T06:35:50.621Z,97700.91
2023-01-17T06:38:19.059Z,97696.63
2023-01-17T06:40:47.885Z,97705.34
2023-01-17T06:43:18.131Z,97700.78
2023-01-17T06:45:46.205Z,97698.84
2023-01-17T06:48:15.520Z,97693.72
2023-01-17T06:50:43.872Z,97695.41
2023-01-17T06:53:12.123Z,97697.03
2023-01-17T06:55:40.597Z,97688.34
2023-01-17T06:58:10.255Z,97686.53
2023-01-17T07:00:41.079Z,97684.88
2023-01-17T07:03:18.620Z,97683.22
2023-01-17T07:05:46.780Z,97689.59
2023-01-17T07:08:16.846Z,97688.91
2023-01-17T07:10:45.919Z,97686.09
2023-01-17T07:13:14.702Z,97681.69
2023-01-17T07:15:43.929Z,97688.59
2023-01-17T07:18:12.992Z,97681.53
2023-01-17T07:20:43.869Z,97683.91
2023-01-17T07:23:12.503Z,97687.91
2023-01-17T07:25:41.204Z,97691.34
2023-01-17T07:28:10.055Z,97690.28
2023-01-17T07:30:38.191Z,97680.72
2023-01-17T07:33:07.496Z,97679.88
2023-01-17T07:35:35.617Z,97678.91
2023-01-17T07:38:05.747Z,97671.31
2023-01-17T07:40:41.545Z,97671.44
2023-01-17T07:43:14.420Z,97664.56
2023-01-17T07:45:44.523Z,97663.44
2023-01-17T07:48:15.629Z,97659.84
2023-01-17T07:50:43.901Z,97666.63
2023-01-17T07:53:12.723Z,97653.22
2023-01-17T07:55:41.274Z,97652.09
2023-01-17T07:58:11.371Z,97646.97
2023-01-17T08:00:39.465Z,97651.28
2023-01-17T08:03:07.406Z,97651.97
2023-01-17T08:05:36.818Z,97649.19
2023-01-17T08:08:05.492Z,97634.66
2023-01-17T08:10:34.501Z,97634.53
2023-01-17T08:13:02.474Z,97632.47
2023-01-17T08:15:30.467Z,97628.19
2023-01-17T08:17:58.671Z,97634.97
2023-01-17T08:20:28.137Z,97634.25
2023-01-17T08:22:58.135Z,97633.44
2023-01-17T08:25:27.093Z,97636.19
2023-01-17T08:27:58.678Z,97634.53
2023-01-17T08:30:27.518Z,97632.88
2023-01-17T08:32:55.647Z,97628.75
2023-01-17T08:35:24.397Z,97621.00
2023-01-17T08:37:55.922Z,97626.50
2023-01-17T08:40:25.919Z,97632.44
2023-01-17T08:42:57.712Z,97637.03
2023-01-17T08:45:26.032Z,97631.38
2023-01-17T08:47:54.693Z,97628.59
2023-01-17T08:50:23.067Z,97626.53
2023-01-17T08:52:53.343Z,97633.16
2023-01-17T08:55:22.038Z,97632.34
2023-01-17T08:57:51.557Z,97637.97
2023-01-17T09:00:20.629Z,97622.66
2023-01-17T09:02:48.751Z,97628.31
2023-01-17T09:05:16.665Z,97636.91
2023-01-17T09:07:44.820Z,97640.06
2023-01-17T09:10:13.909Z,97645.03
2023-01-17T09:12:41.936Z,97646.41
2023-01-17T09:15:14.811Z,97653.34
2023-01-17T09:17:42.530Z,97660.25
2023-01-17T09:20:12.083Z,97662.63
2023-01-17T09:22:39.924Z,97655.13
2023-01-17T09:25:08.795Z,97654.41
2023-01-17T09:27:36.624Z,97664.66
2023-01-17T09:30:05.601Z,97658.16
2023-01-17T09:32:35.258Z,97656.91
2023-01-17T09:35:05.521Z,97673.19
2023-01-17T09:37:33.596Z,97658.78
2023-01-17T09:40:01.349Z,97655.63
2023-01-17T09:42:35.799Z,97660.72
2023-01-17T09:45:04.410Z,97653.78
2023-01-17T09:47:41.655Z,97659.59
2023-01-17T09:50:21.896Z,97654.19
2023-01-17T09:52:49.829Z,97654.59
2023-01-17T09:55:18.866Z,97660.22
2023-01-17T09:57:57.579Z,97665.47
2023-01-17T10:00:40.635Z,97649.63
2023-01-17T10:03:30.985Z,97649.19
2023-01-17T10:06:17.513Z,97659.88
2023-01-17T10:09:04.801Z,97672.16
2023-01-17T10:11:48.147Z,97657.22
2023-01-17T10:14:33.553Z,97656.31
2023-01-17T10:17:13.545Z,97656.41
2023-01-17T10:20:01.568Z,97653.78
2023-01-17T10:22:51.270Z,97650.03
2023-01-17T10:25:48.064Z,97646.41
2023-01-17T10:28:18.258Z,97648.09
2023-01-17T10:30:51.117Z,97652.69
2023-01-17T10:33:21.680Z,97653.19
2023-01-17T10:35:57.144Z,97655.09
2023-01-17T10:38:32.596Z,97642.00
2023-01-17T10:41:06.399Z,97642.25
2023-01-17T10:43:53.887Z,97644.28
2023-01-17T10:46:28.594Z,97646.19
2023-01-17T10:48:58.275Z,97647.53
2023-01-17T10:51:43.998Z,97634.97
2023-01-17T10:54:27.903Z,97633.91
2023-01-17T10:56:56.022Z,97630.38
2023-01-17T10:59:30.595Z,97631.09
2023-01-17T11:01:58.481Z,97624.69
2023-01-17T11:04:37.507Z,97627.72
2023-01-17T11:07:14.431Z,97622.94
2023-01-17T11:09:44.315Z,97619.00
2023-01-17T11:12:21.990Z,97619.63
2023-01-17T11:14:59.842Z,97616.03
2023-01-17T11:17:28.941Z,97619.47
2023-01-17T11:20:09.322Z,97608.19
2023-01-17T11:22:39.095Z,97604.88
2023-01-17T11:25:08.351Z,97603.56
2023-01-17T11:27:39.666Z,97599.78
2023-01-17T11:30:18.108Z,97595.91
2023-01-17T11:32:53.970Z,97599.50
2023-01-17T11:35:25.810Z,97586.66
2023-01-17T11:38:04.662Z,97588.94
2023-01-17T11:40:42.859Z,97577.44
2023-01-17T11:43:21.090Z,97573.56
2023-01-17T11:46:02.940Z,97565.63
2023-01-17T11:48:37.520Z,97563.66
2023-01-17T11:51:15.289Z,97552.13
2023-01-17T11:53:48.390Z,97555.56
2023-01-17T11:56:23.463Z,97550.03
2023-01-17T11:58:52.471Z,97546.78
2023-01-17T12:01:34.870Z,97542.13
2023-01-17T12:04:23.042Z,97543.66
2023-01-17T12:07:06.388Z,97543.50
2023-01-17T12:09:43.898Z,97544.50
2023-01-17T12:12:39.995Z,97533.34
2023-01-17T12:15:22.361Z,97531.50
2023-01-17T12:18:10.933Z,97527.41
2023-01-17T12:20:49.495Z,97519.81
2023-01-17T12:23:32.611Z,97512.44
2023-01-17T12:26:09.828Z,97513.59
2023-01-17T12:28:54.659Z,97508.66
2023-01-17T12:31:33.666Z,97509.78
2023-01-17T12:34:15.779Z,97501.38
2023-01-17T12:36:49.623Z,97496.56
2023-01-17T12:39:22.804Z,97497.25
2023-01-17T12:41:58.203Z,97494.59
2023-01-17T12:44:39.605Z,97484.41
2023-01-17T12:47:08.208Z,97474.47
2023-01-17T12:49:43.477Z,97474.47
2023-01-17T12:52:19.525Z,97468.88
2023-01-17T12:54:52.724Z,97456.16
2023-01-17T12:57:26.864Z,97460.28
2023-01-17T13:00:03.011Z,97462.09
2023-01-17T13:02:39.067Z,97455.66
2023-01-17T13:05:15.329Z,97458.66
2023-01-17T13:07:50.386Z,97456.00
2023-01-17T13:10:35.411Z,97458.94
2023-01-17T13:13:20.429Z,97454.69
2023-01-17T13:15:50.512Z,97446.09
2023-01-17T13:18:23.340Z,97444.13
2023-01-17T13:21:04.923Z,97440.81
2023-01-17T13:23:45.818Z,97432.03
2023-01-17T13:26:27.861Z,97428.44
2023-01-17T13:29:06.241Z,97420.28
2023-01-17T13:31:48.347Z,97427.72
2023-01-17T13:34:35.183Z,97433.47
2023-01-17T13:37:32.553Z,97423.38
2023-01-17T13:40:30.100Z,97420.25
2023-01-17T13:43:00.953Z,97425.84
2023-01-17T13:45:32.732Z,97410.34
2023-01-17T13:48:32.206Z,97401.25
2023-01-17T13:51:03.753Z,97397.78
2023-01-17T13:53:55.038Z,97399.13
2023-01-17T13:56:37.101Z,97410.78
2023-01-17T13:59:30.687Z,97413.22
2023-01-17T14:02:00.352Z,97422.13
2023-01-17T14:05:03.681Z,97421.75
2023-01-17T14:07:35.035Z,97420.56
2023-01-17T14:10:03.264Z,97422.88
2023-01-17T14:12:40.049Z,97426.81
2023-01-17T14:15:22.559Z,97429.69
2023-01-17T14:17:58.857Z,97439.09
2023-01-17T14:20:53.892Z,97443.69
2023-01-17T14:23:56.374Z,97443.41
2023-01-17T14:26:43.054Z,97446.19
2023-01-17T14:29:59.353Z,97446.19
2023-01-17T14:32:32.649Z,97449.81
2023-01-17T14:35:03.016Z,97444.03
2023-01-17T14:37:47.591Z,97451.78
2023-01-17T14:40:25.997Z,97449.81
2023-01-17T14:43:02.167Z,97454.72
2023-01-17T14:45:33.132Z,97455.69
2023-01-17T14:48:04.241Z,97452.38
2023-01-17T14:50:37.692Z,97453.66
2023-01-17T14:53:17.431Z,97452.31
2023-01-17T14:55:55.510Z,97449.69
2023-01-17T14:58:25.104Z,97452.31
2023-01-17T15:00:56.415Z,97451.88
2023-01-17T15:03:24.524Z,97452.19
2023-01-17T15:05:55.964Z,97454.28
2023-01-17T15:08:26.951Z,97455.97
2023-01-17T15:11:00.209Z,97451.66
2023-01-17T15:13:43.776Z,97461.22
2023-01-17T15:16:21.091Z,97454.63
2023-01-17T15:18:49.182Z,97460.03
2023-01-17T15:21:20.762Z,97455.06
2023-01-17T15:23:52.555Z,97453.72
2023-01-17T15:26:23.303Z,97461.63
2023-01-17T15:28:52.004Z,97451.41
2023-01-17T15:31:26.645Z,97449.72
2023-01-17T15:33:57.965Z,97448.75
2023-01-17T15:36:33.143Z,97456.66
2023-01-17T15:39:03.425Z,97457.13
2023-01-17T15:41:34.878Z,97456.47
2023-01-17T15:44:03.569Z,97449.66
2023-01-17T15:46:39.333Z,97446.69
2023-01-17T15:49:17.856Z,97455.69
2023-01-17T15:51:56.572Z,97447.75
2023-01-17T15:54:35.298Z,97450.84
2023-01-17T15:57:18.145Z,97450.78
2023-01-17T15:59:49.030Z,97452.72
2023-01-17T16:02:43.189Z,97456.50
2023-01-17T16:05:34.709Z,97449.56
2023-01-17T16:08:30.230Z,97447.25
2023-01-17T16:11:02.151Z,97454.44
2023-01-17T16:13:31.804Z,97446.53
2023-01-17T16:16:27.122Z,97448.34
2023-01-17T16:19:01.531Z,97443.84
2023-01-17T16:21:30.982Z,97444.84
2023-01-17T16:24:00.943Z,97451.72
2023-01-17T16:26:30.116Z,97450.09
2023-01-17T16:28:58.133Z,97454.81
2023-01-17T16:31:26.462Z,97457.06
2023-01-17T16:33:54.697Z,97454.06
2023-01-17T16:36:23.150Z,97452.84
2023-01-17T16:38:52.389Z,97453.44
2023-01-17T16:41:23.127Z,97450.41
2023-01-17T16:44:00.015Z,97451.94
2023-01-17T16:46:30.070Z,97453.91
2023-01-17T16:49:00.747Z,97451.56
2023-01-17T16:51:29.529Z,97446.06
2023-01-17T16:53:58.250Z,97448.84
2023-01-17T16:56:27.754Z,97448.16
2023-01-17T16:58:56.926Z,97445.38
2023-01-17T17:01:25.434Z,97444.72
2023-01-17T17:03:53.802Z,97448.31
2023-01-17T17:06:21.955Z,97445.97
2023-01-17T17:08:51.035Z,97435.88
2023-01-17T17:11:22.005Z,97439.50
2023-01-17T17:13:52.325Z,97441.72
2023-01-17T17:16:23.180Z,97436.66
2023-01-17T17:18:57.351Z,97440.91
2023-01-17T17:21:26.018Z,97437.59
2023-01-17T17:23:57.438Z,97431.22
2023-01-17T17:26:27.720Z,97438.06
2023-01-17T17:28:58.664Z,97446.06
2023-01-17T17:31:27.917Z,97440.00
2023-01-17T17:33:59.829Z,97440.28
2023-01-17T17:36:28.095Z,97438.09
2023-01-17T17:38:59.046Z,97452.38
2023-01-17T17:41:29.664Z,97449.31
2023-01-17T17:44:01.209Z,97457.47
2023-01-17T17:46:31.104Z,97457.78
2023-01-17T17:49:01.011Z,97461.25
2023-01-17T17:51:31.666Z,97465.66
2023-01-17T17:54:02.696Z,97470.25
2023-01-17T17:56:33.033Z,97462.50
2023-01-17T17:59:03.887Z,97469.84
2023-01-17T18:01:32.121Z,97472.47
2023-01-17T18:04:03.561Z,97467.50
2023-01-17T18:06:32.323Z,97478.97
2023-01-17T18:09:00.347Z,97483.53
2023-01-17T18:11:30.550Z,97484.38
2023-01-17T18:14:03.652Z,97493.38
2023-01-17T18:16:35.593Z,97483.16
2023-01-17T18:19:05.174Z,97489.50
2023-01-17T18:21:36.796Z,97481.94
2023-01-17T18:24:10.934Z,97489.94
2023-01-17T18:26:41.892Z,97493.38
2023-01-17T18:29:15.092Z,97493.25
2023-01-17T18:31:44.976Z,97495.88
2023-01-17T18:34:15.383Z,97499.31
2023-01-17T18:36:45.338Z,97498.50
2023-01-17T18:39:15.232Z,97504.31
2023-01-17T18:41:43.473Z,97501.38
2023-01-17T18:44:13.730Z,97505.81
2023-01-17T18:46:43.936Z,97511.06
2023-01-17T18:49:16.390Z,97511.63
2023-01-17T18:51:47.677Z,97512.16
2023-01-17T18:54:16.331Z,97515.63
2023-01-17T18:56:44.400Z,97520.06
2023-01-17T18:59:18.154Z,97525.19
2023-01-17T19:01:47.406Z,97524.06
2023-01-17T19:04:17.953Z,97522.25
2023-01-17T19:06:49.764Z,97529.44
2023-01-17T19:09:19.249Z,97530.44
2023-01-17T19:11:48.263Z,97529.56
2023-01-17T19:14:18.574Z,97532.06
2023-01-17T19:16:47.097Z,97534.81
2023-01-17T19:19:17.063Z,97538.44
2023-01-17T19:21:45.195Z,97535.94
2023-01-17T19:24:15.189Z,97546.31
2023-01-17T19:26:44.514Z,97547.41
2023-01-17T19:29:13.468Z,97549.22
2023-01-17T19:31:44.854Z,97555.47
2023-01-17T19:34:16.116Z,97556.41
2023-01-17T19:36:44.718Z,97550.34
2023-01-17T19:39:13.257Z,97561.97
2023-01-17T19:41:44.480Z,97557.97
2023-01-17T19:44:14.933Z,97558.09
2023-01-17T19:46:46.191Z,97558.09
2023-01-17T19:49:16.718Z,97558.38
2023-01-17T19:51:45.208Z,97558.91
2023-01-17T19:54:15.418Z,97556.28
2023-01-17T19:56:43.742Z,97559.06
2023-01-17T19:59:13.761Z,97559.06
2023-01-17T20:01:42.847Z,97563.47
2023-01-17T20:04:13.421Z,97559.22
2023-01-17T20:06:42.676Z,97560.47
2023-01-17T20:09:10.875Z,97553.53
2023-01-17T20:11:42.811Z,97558.66
2023-01-17T20:14:15.784Z,97555.22
2023-01-17T20:16:44.899Z,97556.44
2023-01-17T20:19:14.312Z,97557.69
2023-01-17T20:21:43.110Z,97553.41
2023-01-17T20:24:13.693Z,97562.25
2023-01-17T20:26:42.195Z,97567.91
2023-01-17T20:29:13.791Z,97565.72
2023-01-17T20:31:43.013Z,97562.41
2023-01-17T20:34:13.600Z,97558.25
2023-01-17T20:36:42.914Z,97564.19
2023-01-17T20:39:14.475Z,97566.13
2023-01-17T20:41:43.706Z,97569.84
2023-01-17T20:44:13.976Z,97569.97
2023-01-17T20:46:42.148Z,97574.41
2023-01-17T20:49:14.696Z,97573.72
2023-01-17T20:51:45.152Z,97580.78
2023-01-17T20:54:14.931Z,97572.06
2023-01-17T20:56:43.589Z,97572.59
2023-01-17T20:59:14.635Z,97573.59
2023-01-17T21:01:43.683Z,97571.09
2023-01-17T21:04:12.972Z,97570.28
2023-01-17T21:06:41.941Z,97573.72
2023-01-17T21:09:13.252Z,97580.91
2023-01-17T21:11:41.013Z,97583.81
2023-01-17T21:14:08.763Z,97585.59
2023-01-17T21:16:37.090Z,97586.16
2023-01-17T21:19:05.086Z,97594.31
2023-01-17T21:21:32.897Z,97588.38
2023-01-17T21:24:00.785Z,97585.03
2023-01-17T21:26:30.180Z,97590.44
2023-01-17T21:29:00.354Z,97583.94
2023-01-17T21:31:30.195Z,97582.13
2023-01-17T21:33:59.948Z,97586.81
2023-01-17T21:36:29.484Z,97589.59
2023-01-17T21:38:59.057Z,97589.84
2023-01-17T21:41:31.207Z,97586.66
2023-01-17T21:44:00.698Z,97587.78
2023-01-17T21:46:29.494Z,97587.09
2023-01-17T21:48:57.967Z,97590.66
2023-01-17T21:51:46.697Z,97592.75
2023-01-17T21:54:14.676Z,97598.94
2023-01-17T21:57:01.723Z,97600.19
2023-01-17T21:59:32.265Z,97603.22
2023-01-17T22:02:00.385Z,97603.34
2023-01-17T22:04:29.540Z,97609.53
2023-01-17T22:06:57.510Z,97611.34
2023-01-17T22:09:25.470Z,97609.53
2023-01-17T22:11:54.787Z,97610.94
2023-01-17T22:14:22.679Z,97604.97
2023-01-17T22:16:50.603Z,97603.91
2023-01-17T22:19:18.650Z,97603.63
2023-01-17T22:21:46.542Z,97612.34
2023-01-17T22:24:16.883Z,97612.19
2023-01-17T22:26:44.827Z,97616.63
2023-01-17T22:29:17.059Z,97614.00
2023-01-17T22:31:45.662Z,97614.13
2023-01-17T22:34:14.046Z,97617.16
2023-01-17T22:36:42.897Z,97615.47
2023-01-17T22:39:11.729Z,97607.06
2023-01-17T22:41:39.895Z,97614.78
2023-01-17T22:44:08.609Z,97619.19
2023-01-17T22:46:39.351Z,97622.66
2023-01-17T22:49:08.626Z,97611.09
2023-01-17T22:51:36.684Z,97616.59
2023-01-17T22:54:05.226Z,97616.72
2023-01-17T22:56:34.690Z,97608.00
2023-01-17T22:59:03.044Z,97612.56
2023-01-17T23:01:32.902Z,97612.00
2023-01-17T23:04:04.537Z,97612.84
2023-01-17T23:06:36.415Z,97611.75
2023-01-17T23:09:07.374Z,97611.63
2023-01-17T23:11:40.815Z,97610.06
2023-01-17T23:14:11.284Z,97608.44
2023-01-17T23:16:54.315Z,97607.72
2023-01-17T23:19:24.619Z,97608.13
2023-01-17T23:22:11.602Z,97614.78
2023-01-17T23:24:43.266Z,97614.31
2023-01-17T23:27:30.639Z,97611.00
2023-01-17T23:29:58.653Z,97614.44
2023-01-17T23:32:26.938Z,97608.13
2023-01-17T23:34:56.375Z,97611.13
2023-01-17T23:37:51.103Z,97605.19
2023-01-17T23:40:19.587Z,97597.78
2023-01-17T23:43:05.537Z,97599.69
2023-01-17T23:45:35.994Z,97596.38
2023-01-17T23:48:05.651Z,97599.94
2023-01-17T23:50:34.961Z,97600.94
2023-01-17T23:53:06.999Z,97598.84
2023-01-17T23:55:36.449Z,97596.63
2023-01-17T23:58:04.489Z,97598.44
